createdAt,value
2023-09-10T00:00:03.424Z,20.46
2023-09-10T00:01:03.580Z,20.45
2023-09-10T00:02:03.724Z,20.45
2023-09-10T00:03:03.824Z,20.44
2023-09-10T00:04:04.010Z,20.44
2023-09-10T00:05:04.141Z,20.44
2023-09-10T00:06:05.149Z,20.43
2023-09-10T00:07:04.297Z,20.43
2023-09-10T00:08:04.470Z,20.42
2023-09-10T00:09:04.556Z,20.42
2023-09-10T00:10:04.647Z,20.42
2023-09-10T00:11:04.848Z,20.42
2023-09-10T00:12:04.951Z,20.42
2023-09-10T00:13:05.115Z,20.42
2023-09-10T00:14:05.240Z,20.43
2023-09-10T00:15:05.331Z,20.43
2023-09-10T00:16:05.579Z,20.44
2023-09-10T00:17:05.485Z,20.44
2023-09-10T00:18:05.656Z,20.45
2023-09-10T00:19:05.779Z,20.45
2023-09-10T00:20:05.913Z,20.45
2023-09-10T00:21:05.974Z,20.46
2023-09-10T00:22:06.113Z,20.47
2023-09-10T00:23:06.354Z,20.47
2023-09-10T00:24:06.387Z,20.48
2023-09-10T00:25:06.553Z,20.49
2023-09-10T00:26:06.682Z,20.50
2023-09-10T00:27:06.822Z,20.51
2023-09-10T00:28:06.915Z,20.51
2023-09-10T00:29:07.062Z,20.52
2023-09-10T00:30:07.162Z,20.52
2023-09-10T00:31:07.326Z,20.52
2023-09-10T00:32:07.425Z,20.52
2023-09-10T00:33:07.612Z,20.52
2023-09-10T00:34:07.666Z,20.52
2023-09-10T00:35:07.784Z,20.51
2023-09-10T00:36:07.865Z,20.51
2023-09-10T00:37:07.980Z,20.50
2023-09-10T00:38:08.104Z,20.49
2023-09-10T00:39:08.279Z,20.48
2023-09-10T00:40:08.356Z,20.47
2023-09-10T00:41:08.584Z,20.46
2023-09-10T00:42:08.588Z,20.45
2023-09-10T00:43:08.693Z,20.44
2023-09-10T00:44:08.811Z,20.44
2023-09-10T00:45:08.946Z,20.43
2023-09-10T00:46:09.037Z,20.42
2023-09-10T00:47:09.147Z,20.41
2023-09-10T00:48:09.236Z,20.41
2023-09-10T00:49:09.446Z,20.40
2023-09-10T00:50:09.510Z,20.39
2023-09-10T00:51:09.623Z,20.39
2023-09-10T00:52:09.816Z,20.38
2023-09-10T00:53:10.047Z,20.38
2023-09-10T00:54:10.049Z,20.37
2023-09-10T00:55:10.175Z,20.37
2023-09-10T00:56:10.312Z,20.38
2023-09-10T00:57:10.418Z,20.38
2023-09-10T00:58:10.696Z,20.38
2023-09-10T00:59:10.777Z,20.37
2023-09-10T01:00:10.784Z,20.36
2023-09-10T01:01:11.015Z,20.35
2023-09-10T01:02:11.145Z,20.34
2023-09-10T01:03:11.226Z,20.33
2023-09-10T01:04:11.247Z,20.32
2023-09-10T01:05:11.425Z,20.31
2023-09-10T01:06:11.456Z,20.30
2023-09-10T01:07:11.557Z,20.28
2023-09-10T01:08:11.684Z,20.27
2023-09-10T01:09:11.790Z,20.26
2023-09-10T01:10:11.985Z,20.24
2023-09-10T01:11:12.071Z,20.23
2023-09-10T01:12:12.160Z,20.23
2023-09-10T01:13:12.260Z,20.22
2023-09-10T01:14:12.433Z,20.21
2023-09-10T01:15:12.506Z,20.20
2023-09-10T01:16:12.596Z,20.19
2023-09-10T01:17:12.798Z,20.18
2023-09-10T01:18:12.853Z,20.18
2023-09-10T01:19:12.942Z,20.17
2023-09-10T01:20:13.135Z,20.16
2023-09-10T01:21:13.198Z,20.16
2023-09-10T01:22:13.296Z,20.15
2023-09-10T01:23:13.446Z,20.14
2023-09-10T01:24:13.529Z,20.13
2023-09-10T01:25:13.692Z,20.12
2023-09-10T01:26:13.806Z,20.11
2023-09-10T01:27:13.875Z,20.10
2023-09-10T01:28:13.980Z,20.09
2023-09-10T01:29:14.163Z,20.08
2023-09-10T01:30:14.259Z,20.06
2023-09-10T01:31:14.427Z,20.04
2023-09-10T01:32:14.612Z,20.03
2023-09-10T01:33:14.633Z,20.01
2023-09-10T01:34:14.776Z,19.99
2023-09-10T01:35:14.909Z,19.98
2023-09-10T01:36:15.012Z,19.97
2023-09-10T01:37:15.156Z,19.96
2023-09-10T01:38:15.275Z,19.95
2023-09-10T01:39:15.365Z,19.94
2023-09-10T01:40:15.465Z,19.94
2023-09-10T01:41:15.618Z,19.93
2023-09-10T01:42:15.801Z,19.93
2023-09-10T01:43:15.893Z,19.92
2023-09-10T01:44:16.085Z,19.92
2023-09-10T01:45:16.116Z,19.91
2023-09-10T01:46:16.277Z,19.90
2023-09-10T01:47:16.439Z,19.89
2023-09-10T01:48:16.498Z,19.88
2023-09-10T01:49:16.694Z,19.87
2023-09-10T01:50:16.908Z,19.86
2023-09-10T01:51:16.905Z,19.85
2023-09-10T01:52:17.066Z,19.84
2023-09-10T01:53:17.178Z,19.83
2023-09-10T01:54:17.321Z,19.82
2023-09-10T01:55:17.408Z,19.81
2023-09-10T01:56:17.600Z,19.80
2023-09-10T01:57:17.692Z,19.79
2023-09-10T01:58:17.800Z,19.78
2023-09-10T01:59:17.958Z,19.76
2023-09-10T02:00:17.997Z,19.75
2023-09-10T02:01:18.268Z,19.74
2023-09-10T02:02:18.547Z,19.73
2023-09-10T02:03:18.486Z,19.72
2023-09-10T02:04:18.742Z,19.71
2023-09-10T02:05:18.767Z,19.69
2023-09-10T02:06:18.785Z,19.67
2023-09-10T02:07:18.991Z,19.66
2023-09-10T02:08:19.028Z,19.64
2023-09-10T02:09:19.133Z,19.62
2023-09-10T02:10:19.223Z,19.60
2023-09-10T02:11:19.420Z,19.59
2023-09-10T02:12:19.544Z,19.57
2023-09-10T02:13:19.713Z,19.56
2023-09-10T02:14:19.802Z,19.55
2023-09-10T02:15:19.886Z,19.55
2023-09-10T02:16:20.060Z,19.54
2023-09-10T02:17:20.228Z,19.54
2023-09-10T02:18:20.309Z,19.53
2023-09-10T02:19:20.450Z,19.52
2023-09-10T02:20:20.548Z,19.51
2023-09-10T02:21:20.757Z,19.49
2023-09-10T02:22:20.766Z,19.47
2023-09-10T02:23:20.941Z,19.46
2023-09-10T02:24:21.020Z,19.44
2023-09-10T02:25:22.135Z,19.43
2023-09-10T02:26:21.340Z,19.42
2023-09-10T02:27:21.421Z,19.40
2023-09-10T02:28:21.522Z,19.39
2023-09-10T02:29:21.796Z,19.37
2023-09-10T02:30:21.765Z,19.35
2023-09-10T02:31:21.968Z,19.34
2023-09-10T02:32:22.245Z,19.32
2023-09-10T02:33:22.157Z,19.31
2023-09-10T02:34:22.325Z,19.30
2023-09-10T02:35:22.392Z,19.28
2023-09-10T02:36:22.512Z,19.26
2023-09-10T02:37:22.612Z,19.25
2023-09-10T02:38:22.799Z,19.24
2023-09-10T02:39:22.895Z,19.24
2023-09-10T02:40:22.956Z,19.25
2023-09-10T02:41:23.077Z,19.26
2023-09-10T02:42:23.204Z,19.28
2023-09-10T02:43:23.390Z,19.30
2023-09-10T02:44:23.527Z,19.32
2023-09-10T02:45:23.597Z,19.35
2023-09-10T02:46:23.767Z,19.37
2023-09-10T02:47:23.832Z,19.38
2023-09-10T02:48:23.959Z,19.39
2023-09-10T02:49:24.102Z,19.39
2023-09-10T02:50:27.794Z,19.40
2023-09-10T02:51:24.242Z,19.40
2023-09-10T02:52:24.348Z,19.40
2023-09-10T02:53:24.522Z,19.40
2023-09-10T02:54:24.566Z,19.40
2023-09-10T02:55:24.781Z,19.39
2023-09-10T02:56:24.850Z,19.39
2023-09-10T02:57:24.975Z,19.38
2023-09-10T02:58:25.089Z,19.37
2023-09-10T02:59:25.207Z,19.35
2023-09-10T03:00:25.367Z,19.34
2023-09-10T03:01:25.476Z,19.32
2023-09-10T03:02:25.749Z,19.30
2023-09-10T03:03:25.857Z,19.28
2023-09-10T03:04:25.813Z,19.27
2023-09-10T03:05:25.965Z,19.26
2023-09-10T03:06:26.057Z,19.25
2023-09-10T03:07:26.160Z,19.25
2023-09-10T03:08:26.318Z,19.25
2023-09-10T03:09:26.363Z,19.25
2023-09-10T03:10:26.517Z,19.25
2023-09-10T03:11:26.636Z,19.25
2023-09-10T03:12:26.780Z,19.25
2023-09-10T03:13:26.892Z,19.25
2023-09-10T03:14:27.011Z,19.25
2023-09-10T03:15:27.109Z,19.25
2023-09-10T03:16:27.260Z,19.25
2023-09-10T03:17:27.367Z,19.24
2023-09-10T03:18:27.453Z,19.24
2023-09-10T03:19:27.568Z,19.23
2023-09-10T03:20:27.740Z,19.22
2023-09-10T03:21:27.853Z,19.22
2023-09-10T03:22:27.994Z,19.21
2023-09-10T03:23:28.101Z,19.20
2023-09-10T03:24:28.216Z,19.19
2023-09-10T03:25:28.304Z,19.18
2023-09-10T03:26:28.470Z,19.18
2023-09-10T03:27:28.552Z,19.17
2023-09-10T03:28:28.687Z,19.17
2023-09-10T03:29:28.758Z,19.16
2023-09-10T03:30:28.861Z,19.15
2023-09-10T03:31:28.968Z,19.13
2023-09-10T03:32:29.217Z,19.12
2023-09-10T03:33:29.227Z,19.11
2023-09-10T03:34:29.333Z,19.11
2023-09-10T03:35:29.469Z,19.10
2023-09-10T03:36:29.558Z,19.09
2023-09-10T03:37:29.703Z,19.08
2023-09-10T03:38:29.810Z,19.07
2023-09-10T03:39:29.852Z,19.07
2023-09-10T03:40:29.953Z,19.07
2023-09-10T03:41:30.062Z,19.06
2023-09-10T03:42:30.197Z,19.06
2023-09-10T03:43:30.322Z,19.06
2023-09-10T03:44:30.474Z,19.06
2023-09-10T03:45:30.552Z,19.05
2023-09-10T03:46:30.682Z,19.05
2023-09-10T03:47:30.819Z,19.05
2023-09-10T03:48:30.882Z,19.05
2023-09-10T03:49:31.070Z,19.05
2023-09-10T03:50:31.167Z,19.05
2023-09-10T03:51:31.274Z,19.05
2023-09-10T03:52:31.436Z,19.06
2023-09-10T03:53:31.567Z,19.06
2023-09-10T03:54:31.715Z,19.06
2023-09-10T03:55:31.804Z,19.06
2023-09-10T03:56:31.915Z,19.07
2023-09-10T03:57:32.029Z,19.07
2023-09-10T03:58:32.119Z,19.08
2023-09-10T03:59:32.210Z,19.08
2023-09-10T04:00:32.363Z,19.08
2023-09-10T04:01:32.446Z,19.07
2023-09-10T04:02:32.711Z,19.07
2023-09-10T04:03:32.721Z,19.07
2023-09-10T04:04:32.845Z,19.06
2023-09-10T04:05:32.987Z,19.06
2023-09-10T04:06:33.109Z,19.04
2023-09-10T04:07:33.190Z,19.03
2023-09-10T04:08:33.340Z,19.01
2023-09-10T04:09:33.445Z,18.99
2023-09-10T04:10:33.599Z,18.98
2023-09-10T04:11:33.637Z,18.97
2023-09-10T04:12:33.734Z,18.95
2023-09-10T04:13:33.865Z,18.94
2023-09-10T04:14:34.022Z,18.93
2023-09-10T04:15:34.135Z,18.92
2023-09-10T04:16:34.280Z,18.91
2023-09-10T04:17:34.445Z,18.90
2023-09-10T04:18:34.508Z,18.89
2023-09-10T04:19:35.605Z,18.88
2023-09-10T04:20:34.814Z,18.87
2023-09-10T04:21:34.880Z,18.86
2023-09-10T04:22:35.029Z,18.84
2023-09-10T04:23:35.137Z,18.83
2023-09-10T04:24:35.292Z,18.81
2023-09-10T04:25:35.427Z,18.80
2023-09-10T04:26:35.538Z,18.80
2023-09-10T04:27:35.636Z,18.79
2023-09-10T04:28:35.754Z,18.79
2023-09-10T04:29:35.869Z,18.80
2023-09-10T04:30:35.975Z,18.80
2023-09-10T04:31:36.159Z,18.80
2023-09-10T04:32:36.344Z,18.81
2023-09-10T04:33:36.393Z,18.82
2023-09-10T04:34:36.482Z,18.82
2023-09-10T04:35:36.642Z,18.82
2023-09-10T04:36:36.760Z,18.82
2023-09-10T04:37:36.868Z,18.82
2023-09-10T04:38:37.300Z,18.82
2023-09-10T04:39:37.137Z,18.82
2023-09-10T04:40:37.253Z,18.81
2023-09-10T04:41:37.449Z,18.81
2023-09-10T04:42:37.489Z,18.80
2023-09-10T04:43:37.575Z,18.80
2023-09-10T04:44:37.676Z,18.79
2023-09-10T04:45:37.792Z,18.78
2023-09-10T04:46:37.932Z,18.78
2023-09-10T04:47:38.042Z,18.78
2023-09-10T04:48:38.361Z,18.77
2023-09-10T04:49:38.252Z,18.77
2023-09-10T04:50:38.377Z,18.77
2023-09-10T04:51:38.517Z,18.76
2023-09-10T04:52:38.663Z,18.77
2023-09-10T04:53:38.710Z,18.78
2023-09-10T04:54:38.833Z,18.79
2023-09-10T04:55:39.030Z,18.80
2023-09-10T04:56:39.076Z,18.80
2023-09-10T04:57:39.173Z,18.81
2023-09-10T04:58:39.522Z,18.80
2023-09-10T04:59:39.444Z,18.80
2023-09-10T05:00:39.536Z,18.80
2023-09-10T05:01:39.785Z,18.80
2023-09-10T05:02:39.919Z,18.79
2023-09-10T05:03:39.977Z,18.78
2023-09-10T05:04:40.114Z,18.77
2023-09-10T05:05:40.212Z,18.77
2023-09-10T05:06:40.351Z,18.76
2023-09-10T05:07:40.501Z,18.76
2023-09-10T05:08:40.800Z,18.76
2023-09-10T05:09:40.742Z,18.76
2023-09-10T05:10:40.849Z,18.76
2023-09-10T05:11:40.989Z,18.76
2023-09-10T05:12:41.065Z,18.76
2023-09-10T05:13:41.181Z,18.77
2023-09-10T05:14:41.271Z,18.77
2023-09-10T05:15:41.379Z,18.77
2023-09-10T05:16:41.588Z,18.77
2023-09-10T05:17:41.658Z,18.76
2023-09-10T05:18:41.779Z,18.77
2023-09-10T05:19:41.812Z,18.77
2023-09-10T05:20:41.872Z,18.78
2023-09-10T05:21:42.039Z,18.79
2023-09-10T05:22:42.160Z,18.80
2023-09-10T05:23:42.258Z,18.81
2023-09-10T05:24:42.367Z,18.83
2023-09-10T05:25:42.535Z,18.84
2023-09-10T05:26:42.646Z,18.85
2023-09-10T05:27:42.751Z,18.87
2023-09-10T05:28:46.293Z,18.88
2023-09-10T05:29:42.979Z,18.90
2023-09-10T05:30:43.091Z,18.91
2023-09-10T05:31:43.274Z,18.93
2023-09-10T05:32:43.512Z,18.94
2023-09-10T05:33:43.500Z,18.96
2023-09-10T05:34:43.641Z,18.98
2023-09-10T05:35:43.685Z,19.00
2023-09-10T05:36:43.781Z,19.03
2023-09-10T05:37:44.053Z,19.05
2023-09-10T05:38:44.032Z,19.07
2023-09-10T05:39:44.134Z,19.09
2023-09-10T05:40:44.241Z,19.11
2023-09-10T05:41:44.395Z,19.13
2023-09-10T05:42:44.542Z,19.15
2023-09-10T05:43:44.670Z,19.17
2023-09-10T05:44:44.777Z,19.19
2023-09-10T05:45:44.927Z,19.21
2023-09-10T05:46:45.013Z,19.22
2023-09-10T05:47:45.187Z,19.24
2023-09-10T05:48:45.282Z,19.25
2023-09-10T05:49:45.421Z,19.26
2023-09-10T05:50:45.510Z,19.28
2023-09-10T05:51:45.618Z,19.31
2023-09-10T05:52:45.742Z,19.33
2023-09-10T05:53:45.998Z,19.36
2023-09-10T05:54:45.981Z,19.40
2023-09-10T05:55:46.119Z,19.43
2023-09-10T05:56:46.210Z,19.48
2023-09-10T05:57:46.410Z,19.53
2023-09-10T05:58:46.531Z,19.59
2023-09-10T05:59:46.580Z,19.65
2023-09-10T06:00:46.719Z,19.72
2023-09-10T06:01:46.887Z,19.79
2023-09-10T06:02:47.092Z,19.86
2023-09-10T06:03:47.193Z,19.93
2023-09-10T06:04:47.383Z,20.01
2023-09-10T06:05:47.422Z,20.08
2023-09-10T06:06:47.521Z,20.15
2023-09-10T06:07:47.679Z,20.22
2023-09-10T06:08:47.867Z,20.29
2023-09-10T06:09:47.944Z,20.36
2023-09-10T06:10:48.098Z,20.43
2023-09-10T06:11:48.158Z,20.50
2023-09-10T06:12:48.259Z,20.57
2023-09-10T06:13:48.465Z,20.63
2023-09-10T06:14:48.569Z,20.69
2023-09-10T06:15:48.775Z,20.75
2023-09-10T06:16:48.857Z,20.81
2023-09-10T06:17:48.960Z,20.88
2023-09-10T06:18:49.036Z,20.94
2023-09-10T06:19:49.206Z,21.01
2023-09-10T06:20:49.276Z,21.08
2023-09-10T06:21:49.410Z,21.14
2023-09-10T06:22:49.558Z,21.21
2023-09-10T06:23:49.626Z,21.28
2023-09-10T06:24:49.780Z,21.36
2023-09-10T06:25:53.773Z,21.43
2023-09-10T06:26:49.969Z,21.51
2023-09-10T06:27:50.065Z,21.57
2023-09-10T06:28:50.230Z,21.64
2023-09-10T06:29:50.324Z,21.70
2023-09-10T06:30:50.377Z,21.77
2023-09-10T06:31:50.589Z,21.84
2023-09-10T06:32:50.861Z,21.92
2023-09-10T06:33:50.780Z,22.00
2023-09-10T06:34:51.043Z,22.08
2023-09-10T06:35:51.078Z,22.17
2023-09-10T06:36:51.178Z,22.24
2023-09-10T06:37:51.346Z,22.32
2023-09-10T06:38:51.420Z,22.40
2023-09-10T06:39:51.579Z,22.47
2023-09-10T06:40:51.688Z,22.53
2023-09-10T06:41:51.798Z,22.59
2023-09-10T06:42:51.916Z,22.65
2023-09-10T06:43:52.066Z,22.73
2023-09-10T06:44:52.151Z,22.83
2023-09-10T06:45:52.401Z,22.94
2023-09-10T06:46:52.467Z,23.06
2023-09-10T06:47:52.522Z,23.19
2023-09-10T06:48:52.618Z,23.32
2023-09-10T06:49:52.747Z,23.43
2023-09-10T06:50:52.961Z,23.53
2023-09-10T06:51:53.030Z,23.63
2023-09-10T06:52:53.201Z,23.72
2023-09-10T06:53:53.284Z,23.81
2023-09-10T06:54:54.982Z,23.90
2023-09-10T06:55:53.548Z,23.99
2023-09-10T06:56:53.623Z,24.09
2023-09-10T06:57:53.785Z,24.17
2023-09-10T06:58:53.963Z,24.25
2023-09-10T06:59:54.015Z,24.30
2023-09-10T07:00:54.196Z,24.35
2023-09-10T07:01:54.272Z,24.39
2023-09-10T07:02:54.389Z,24.45
2023-09-10T07:03:54.477Z,24.50
2023-09-10T07:04:54.677Z,24.56
2023-09-10T07:05:54.848Z,24.63
2023-09-10T07:06:54.860Z,24.72
2023-09-10T07:07:55.008Z,24.81
2023-09-10T07:08:55.073Z,24.90
2023-09-10T07:09:55.191Z,24.98
2023-09-10T07:10:55.310Z,25.06
2023-09-10T07:11:55.557Z,25.14
2023-09-10T07:12:55.588Z,25.23
2023-09-10T07:13:55.732Z,25.31
2023-09-10T07:14:55.804Z,25.40
2023-09-10T07:15:55.972Z,25.49
2023-09-10T07:16:56.065Z,25.58
2023-09-10T07:17:56.330Z,25.67
2023-09-10T07:18:56.292Z,25.75
2023-09-10T07:19:56.417Z,25.82
2023-09-10T07:20:56.499Z,25.89
2023-09-10T07:21:56.627Z,25.97
2023-09-10T07:22:56.736Z,26.07
2023-09-10T07:23:56.831Z,26.18
2023-09-10T07:24:56.949Z,26.29
2023-09-10T07:25:57.069Z,26.38
2023-09-10T07:26:57.140Z,26.47
2023-09-10T07:27:57.250Z,26.56
2023-09-10T07:28:57.421Z,26.65
2023-09-10T07:29:57.453Z,26.74
2023-09-10T07:30:57.575Z,26.81
2023-09-10T07:31:57.727Z,26.89
2023-09-10T07:32:57.806Z,26.97
2023-09-10T07:33:57.910Z,27.06
2023-09-10T07:34:58.070Z,27.14
2023-09-10T07:35:58.156Z,27.23
2023-09-10T07:36:58.284Z,27.32
2023-09-10T07:37:58.405Z,27.41
2023-09-10T07:38:58.525Z,27.51
2023-09-10T07:39:58.657Z,27.58
2023-09-10T07:40:58.888Z,27.64
2023-09-10T07:41:58.853Z,27.70
2023-09-10T07:42:58.986Z,27.76
2023-09-10T07:43:59.126Z,27.83
2023-09-10T07:44:59.201Z,27.90
2023-09-10T07:45:59.362Z,27.92
2023-09-10T07:46:59.513Z,27.90
2023-09-10T07:47:59.617Z,27.88
2023-09-10T07:48:59.691Z,27.89
2023-09-10T07:49:59.852Z,27.94
2023-09-10T07:50:59.909Z,28.01
2023-09-10T07:51:59.988Z,28.09
2023-09-10T07:53:00.189Z,28.18
2023-09-10T07:54:00.267Z,28.27
2023-09-10T07:55:00.450Z,28.33
2023-09-10T07:56:00.497Z,28.38
2023-09-10T07:57:00.596Z,28.43
2023-09-10T07:58:00.764Z,28.47
2023-09-10T07:59:00.929Z,28.51
2023-09-10T08:00:01.107Z,28.54
2023-09-10T08:01:01.176Z,28.55
2023-09-10T08:02:01.324Z,28.57
2023-09-10T08:03:01.535Z,28.61
2023-09-10T08:04:01.542Z,28.68
2023-09-10T08:05:01.683Z,28.77
2023-09-10T08:06:01.765Z,28.85
2023-09-10T08:07:01.899Z,28.90
2023-09-10T08:08:02.035Z,28.92
2023-09-10T08:09:02.128Z,28.91
2023-09-10T08:10:02.335Z,28.92
2023-09-10T08:11:02.498Z,28.95
2023-09-10T08:12:02.785Z,28.98
2023-09-10T08:13:02.684Z,28.98
2023-09-10T08:14:02.801Z,28.95
2023-09-10T08:15:02.895Z,28.92
2023-09-10T08:16:03.011Z,28.91
2023-09-10T08:17:03.250Z,28.92
2023-09-10T08:18:04.912Z,28.95
2023-09-10T08:19:03.386Z,28.99
2023-09-10T08:20:03.548Z,29.04
2023-09-10T08:21:03.665Z,29.11
2023-09-10T08:22:03.753Z,29.20
2023-09-10T08:23:03.875Z,29.28
2023-09-10T08:24:03.987Z,29.34
2023-09-10T08:25:04.132Z,29.37
2023-09-10T08:26:04.309Z,29.39
2023-09-10T08:27:04.489Z,29.40
2023-09-10T08:28:04.534Z,29.41
2023-09-10T08:29:04.741Z,29.42
2023-09-10T08:30:04.780Z,29.44
2023-09-10T08:31:04.948Z,29.48
2023-09-10T08:32:05.292Z,29.53
2023-09-10T08:33:05.234Z,29.58
2023-09-10T08:34:05.274Z,29.63
2023-09-10T08:35:05.455Z,29.67
2023-09-10T08:36:05.504Z,29.72
2023-09-10T08:37:05.615Z,29.79
2023-09-10T08:38:05.754Z,29.87
2023-09-10T08:39:05.945Z,29.91
2023-09-10T08:40:05.971Z,29.94
2023-09-10T08:41:06.143Z,29.97
2023-09-10T08:42:06.388Z,30.02
2023-09-10T08:43:06.418Z,30.07
2023-09-10T08:44:06.534Z,30.07
2023-09-10T08:45:06.668Z,30.04
2023-09-10T08:46:06.788Z,30.01
2023-09-10T08:47:06.939Z,30.00
2023-09-10T08:48:07.052Z,30.02
2023-09-10T08:49:07.107Z,30.07
2023-09-10T08:50:07.263Z,30.14
2023-09-10T08:51:07.375Z,30.23
2023-09-10T08:52:07.479Z,30.32
2023-09-10T08:53:07.662Z,30.40
2023-09-10T08:54:07.742Z,30.47
2023-09-10T08:55:07.854Z,30.51
2023-09-10T08:56:08.037Z,30.50
2023-09-10T08:57:08.156Z,30.51
2023-09-10T08:58:08.278Z,30.55
2023-09-10T08:59:08.386Z,30.61
2023-09-10T09:00:08.485Z,30.68
2023-09-10T09:01:08.646Z,30.73
2023-09-10T09:02:08.814Z,30.72
2023-09-10T09:03:09.029Z,30.66
2023-09-10T09:04:08.912Z,30.61
2023-09-10T09:05:09.151Z,30.60
2023-09-10T09:06:09.185Z,30.63
2023-09-10T09:07:09.365Z,30.67
2023-09-10T09:08:09.503Z,30.68
2023-09-10T09:09:09.605Z,30.68
2023-09-10T09:10:09.618Z,30.68
2023-09-10T09:11:09.751Z,30.66
2023-09-10T09:12:09.858Z,30.62
2023-09-10T09:13:09.988Z,30.58
2023-09-10T09:14:10.252Z,30.56
2023-09-10T09:15:10.275Z,30.58
2023-09-10T09:16:10.374Z,30.61
2023-09-10T09:17:10.594Z,30.62
2023-09-10T09:18:10.649Z,30.63
2023-09-10T09:19:10.722Z,30.65
2023-09-10T09:20:10.848Z,30.67
2023-09-10T09:21:10.954Z,30.70
2023-09-10T09:22:11.092Z,30.73
2023-09-10T09:23:11.301Z,30.72
2023-09-10T09:24:11.327Z,30.68
2023-09-10T09:25:11.522Z,30.66
2023-09-10T09:26:11.632Z,30.69
2023-09-10T09:27:11.729Z,30.76
2023-09-10T09:28:11.864Z,30.83
2023-09-10T09:29:12.121Z,30.91
2023-09-10T09:30:12.191Z,30.98
2023-09-10T09:31:12.346Z,31.02
2023-09-10T09:32:12.457Z,31.01
2023-09-10T09:33:12.643Z,30.96
2023-09-10T09:34:12.692Z,30.93
2023-09-10T09:35:12.909Z,30.95
2023-09-10T09:36:13.091Z,30.98
2023-09-10T09:37:13.082Z,31.01
2023-09-10T09:38:13.229Z,31.00
2023-09-10T09:39:13.320Z,30.97
2023-09-10T09:40:13.458Z,30.92
2023-09-10T09:41:13.611Z,30.86
2023-09-10T09:42:13.698Z,30.82
2023-09-10T09:43:20.830Z,30.80
2023-09-10T09:44:15.025Z,30.78
2023-09-10T09:45:14.121Z,30.77
2023-09-10T09:46:14.316Z,30.79
2023-09-10T09:47:14.437Z,30.84
2023-09-10T09:48:14.587Z,30.90
2023-09-10T09:49:14.628Z,30.96
2023-09-10T09:50:14.798Z,31.04
2023-09-10T09:51:14.872Z,31.14
2023-09-10T09:52:14.994Z,31.24
2023-09-10T09:53:15.124Z,31.32
2023-09-10T09:54:15.241Z,31.38
2023-09-10T09:55:15.348Z,31.40
2023-09-10T09:56:15.534Z,31.43
2023-09-10T09:57:15.611Z,31.47
2023-09-10T09:58:15.727Z,31.49
2023-09-10T09:59:15.871Z,31.45
2023-09-10T10:00:15.973Z,31.39
2023-09-10T10:01:16.142Z,31.35
2023-09-10T10:02:16.329Z,31.36
2023-09-10T10:03:16.376Z,31.40
2023-09-10T10:04:16.605Z,31.42
2023-09-10T10:05:16.724Z,31.43
2023-09-10T10:06:16.838Z,31.44
2023-09-10T10:07:24.867Z,31.48
2023-09-10T10:08:18.074Z,31.51
2023-09-10T10:09:17.095Z,31.52
2023-09-10T10:10:17.203Z,31.53
2023-09-10T10:11:17.368Z,31.57
2023-09-10T10:12:17.419Z,31.59
2023-09-10T10:13:17.520Z,31.58
2023-09-10T10:14:17.628Z,31.55
2023-09-10T10:15:17.754Z,31.49
2023-09-10T10:16:17.997Z,31.39
2023-09-10T10:17:18.096Z,31.30
2023-09-10T10:18:18.220Z,31.28
2023-09-10T10:19:18.252Z,31.30
2023-09-10T10:20:18.492Z,31.33
2023-09-10T10:21:18.548Z,31.38
2023-09-10T10:22:18.745Z,31.41
2023-09-10T10:23:24.724Z,31.41
2023-09-10T10:24:19.954Z,31.42
2023-09-10T10:25:19.097Z,31.46
2023-09-10T10:26:19.265Z,31.51
2023-09-10T10:27:19.369Z,31.59
2023-09-10T10:28:19.471Z,31.67
2023-09-10T10:29:19.681Z,31.72
2023-09-10T10:30:19.781Z,31.76
2023-09-10T10:31:19.912Z,31.83
2023-09-10T10:32:20.026Z,31.88
2023-09-10T10:33:20.143Z,31.89
2023-09-10T10:34:20.242Z,31.91
2023-09-10T10:35:20.391Z,31.94
2023-09-10T10:36:20.488Z,32.00
2023-09-10T10:37:20.616Z,32.06
2023-09-10T10:38:20.770Z,32.12
2023-09-10T10:39:20.869Z,32.18
2023-09-10T10:40:21.020Z,32.25
2023-09-10T10:41:21.169Z,32.31
2023-09-10T10:42:21.231Z,32.35
2023-09-10T10:43:21.334Z,32.37
2023-09-10T10:44:21.539Z,32.36
2023-09-10T10:45:21.586Z,32.36
2023-09-10T10:46:21.739Z,32.39
2023-09-10T10:47:21.973Z,32.42
2023-09-10T10:48:21.918Z,32.43
2023-09-10T10:49:22.094Z,32.45
2023-09-10T10:50:22.312Z,32.44
2023-09-10T10:51:22.458Z,32.34
2023-09-10T10:52:22.477Z,32.18
2023-09-10T10:53:22.658Z,32.01
2023-09-10T10:54:22.752Z,31.93
2023-09-10T10:55:22.861Z,31.94
2023-09-10T10:56:23.006Z,32.00
2023-09-10T10:57:23.058Z,32.08
2023-09-10T10:58:23.211Z,32.15
2023-09-10T10:59:23.372Z,32.22
2023-09-10T11:00:23.484Z,32.27
2023-09-10T11:01:23.609Z,32.29
2023-09-10T11:02:23.961Z,32.22
2023-09-10T11:03:23.908Z,32.16
2023-09-10T11:04:24.004Z,32.17
2023-09-10T11:05:24.391Z,32.20
2023-09-10T11:06:24.198Z,32.23
2023-09-10T11:07:24.388Z,32.29
2023-09-10T11:08:24.565Z,32.35
2023-09-10T11:09:24.601Z,32.41
2023-09-10T11:10:24.809Z,32.46
2023-09-10T11:11:24.839Z,32.51
2023-09-10T11:12:24.950Z,32.55
2023-09-10T11:13:26.097Z,32.59
2023-09-10T11:14:25.236Z,32.63
2023-09-10T11:15:25.385Z,32.62
2023-09-10T11:16:25.527Z,32.53
2023-09-10T11:17:25.975Z,32.37
2023-09-10T11:18:25.689Z,32.25
2023-09-10T11:19:25.848Z,32.23
2023-09-10T11:20:26.056Z,32.24
2023-09-10T11:21:26.092Z,32.22
2023-09-10T11:22:26.217Z,32.12
2023-09-10T11:23:26.390Z,32.01
2023-09-10T11:24:26.478Z,31.98
2023-09-10T11:25:26.552Z,32.02
2023-09-10T11:26:26.787Z,32.09
2023-09-10T11:27:26.869Z,32.18
2023-09-10T11:28:26.955Z,32.26
2023-09-10T11:29:27.118Z,32.31
2023-09-10T11:30:27.215Z,32.31
2023-09-10T11:31:27.506Z,32.30
2023-09-10T11:32:27.435Z,32.32
2023-09-10T11:33:27.596Z,32.31
2023-09-10T11:34:27.687Z,32.30
2023-09-10T11:35:27.829Z,32.32
2023-09-10T11:36:27.935Z,32.38
2023-09-10T11:37:28.034Z,32.42
2023-09-10T11:38:28.240Z,32.36
2023-09-10T11:39:28.245Z,32.19
2023-09-10T11:40:28.403Z,32.03
2023-09-10T11:41:28.572Z,31.95
2023-09-10T11:42:28.653Z,31.90
2023-09-10T11:43:28.776Z,31.92
2023-09-10T11:44:28.969Z,32.00
2023-09-10T11:45:29.041Z,32.11
2023-09-10T11:46:29.169Z,32.25
2023-09-10T11:47:29.433Z,32.40
2023-09-10T11:48:29.447Z,32.53
2023-09-10T11:49:29.518Z,32.64
2023-09-10T11:50:29.728Z,32.64
2023-09-10T11:51:29.757Z,32.59
2023-09-10T11:52:29.856Z,32.53
2023-09-10T11:53:30.124Z,32.47
2023-09-10T11:54:30.093Z,32.45
2023-09-10T11:55:30.192Z,32.48
2023-09-10T11:56:30.403Z,32.49
2023-09-10T11:57:30.497Z,32.44
2023-09-10T11:58:30.628Z,32.41
2023-09-10T11:59:30.817Z,32.45
2023-09-10T12:00:30.882Z,32.46
2023-09-10T12:01:31.031Z,32.47
2023-09-10T12:02:31.214Z,32.52
2023-09-10T12:03:31.493Z,32.59
2023-09-10T12:04:31.410Z,32.65
2023-09-10T12:05:33.849Z,32.72
2023-09-10T12:06:31.646Z,32.74
2023-09-10T12:07:31.776Z,32.71
2023-09-10T12:08:31.922Z,32.70
2023-09-10T12:09:32.028Z,32.74
2023-09-10T12:10:32.127Z,32.81
2023-09-10T12:11:32.233Z,32.88
2023-09-10T12:12:32.332Z,32.95
2023-09-10T12:13:32.512Z,33.01
2023-09-10T12:14:32.615Z,33.09
2023-09-10T12:15:32.723Z,33.16
2023-09-10T12:16:32.831Z,33.23
2023-09-10T12:17:33.088Z,33.29
2023-09-10T12:18:33.105Z,33.29
2023-09-10T12:19:33.247Z,33.21
2023-09-10T12:20:33.464Z,33.13
2023-09-10T12:21:33.476Z,33.08
2023-09-10T12:22:33.625Z,33.06
2023-09-10T12:23:33.810Z,33.06
2023-09-10T12:24:33.972Z,33.10
2023-09-10T12:25:34.044Z,33.17
2023-09-10T12:26:34.198Z,33.27
2023-09-10T12:27:34.316Z,33.36
2023-09-10T12:28:34.423Z,33.45
2023-09-10T12:29:34.604Z,33.52
2023-09-10T12:30:34.623Z,33.56
2023-09-10T12:31:34.804Z,33.59
2023-09-10T12:32:34.986Z,33.58
2023-09-10T12:33:35.059Z,33.54
2023-09-10T12:34:35.295Z,33.50
2023-09-10T12:35:35.426Z,33.49
2023-09-10T12:36:35.425Z,33.50
2023-09-10T12:37:35.577Z,33.51
2023-09-10T12:38:35.788Z,33.51
2023-09-10T12:39:35.824Z,33.52
2023-09-10T12:40:35.973Z,33.56
2023-09-10T12:41:37.354Z,33.60
2023-09-10T12:42:36.163Z,33.62
2023-09-10T12:43:36.282Z,33.62
2023-09-10T12:44:36.472Z,33.63
2023-09-10T12:45:36.519Z,33.63
2023-09-10T12:46:36.736Z,33.64
2023-09-10T12:47:36.793Z,33.67
2023-09-10T12:48:36.988Z,33.65
2023-09-10T12:49:36.946Z,33.54
2023-09-10T12:50:37.145Z,33.39
2023-09-10T12:51:37.198Z,33.23
2023-09-10T12:52:37.338Z,33.13
2023-09-10T12:53:37.474Z,33.14